PWSweather.com
Personal Weather Stations
Station Observations
WXGLH1124
Southern Oaks, Indianapolis, IN 46217

Southern OaksIndianapolis, IN 46217

Lat: 39.65113, Lon: -86.16866

Elevation: 720

Station Type: Vantage Pro2

Latest ConditionsUpdated 11:35:00 PM EDT Tuesday, Mar 26, 2019
Currently Today's Max Today's Min Today's Average
Temperature 38.0°F3.3°C 49.9°F9.9°C 28.4°F-2.0°C 38.4°F3.6°C
Dew Point 25.0°F-3.9°C 27.3°F-2.6°C 21.4°F-5.9°C 24.0°F-4.4°C
Winds Calm Calm 10.0 mph -16.1 kmh - - 0.9 mph 1.4 kmh
Wind Gusts -- 10.0 mph16.1 kmh - -
Humidity 59% 81% 36% 58%
Pressure 30.42 in1030.1 mb 30.46 in1031.5 mb 30.30 in1026.1 mb -
Hour Temp Dew Point Humidity Winds Wind Gusts Pressure Precip Precip Rate Daily Precip Total
11:35 PM 38.0°F3.3°C 25.0°F-3.9°C 59% Calm Calm -- 30.42 in1030.1 mb 0.00 in0.0 mm 0.00 in0.0 mm 0.04 in1.0 mm
11:30 PM 38.2°F3.4°C 24.7°F-4.1°C 58% Calm Calm -- 30.42 in1030.1 mb 0.00 in0.0 mm 0.00 in0.0 mm 0.04 in1.0 mm
11:25 PM 38.4°F3.6°C 24.9°F-3.9°C 58% Calm Calm -- 30.42 in1030.1 mb 0.00 in0.0 mm 0.00 in0.0 mm 0.04 in1.0 mm
11:20 PM 38.6°F3.7°C 24.7°F-4.1°C 57% Calm Calm -- 30.43 in1030.5 mb 0.00 in0.0 mm 0.00 in0.0 mm 0.04 in1.0 mm
11:14 PM 38.8°F3.8°C 24.5°F-4.2°C 56% Calm Calm -- 30.43 in1030.5 mb 0.00 in0.0 mm 0.00 in0.0 mm 0.04 in1.0 mm
11:10 PM 39.0°F3.9°C 24.2°F-4.3°C 55% Calm Calm -- 30.43 in1030.5 mb 0.00 in0.0 mm 0.00 in0.0 mm 0.04 in1.0 mm
11:05 PM 39.3°F4.1°C 24.1°F-4.4°C 54% Calm Calm -- 30.43 in1030.5 mb 0.00 in0.0 mm 0.00 in0.0 mm 0.04 in1.0 mm
11:00 PM 39.6°F4.2°C 23.9°F-4.5°C 53% Calm Calm -- 30.43 in1030.5 mb 0.00 in0.0 mm 0.00 in0.0 mm 0.04 in1.0 mm
10:55 PM 39.7°F4.3°C 24.0°F-4.4°C 53% Calm Calm -- 30.43 in1030.5 mb 0.00 in0.0 mm 0.00 in0.0 mm 0.04 in1.0 mm
10:50 PM 39.8°F4.3°C 23.6°F-4.7°C 52% Calm Calm -- 30.42 in1030.1 mb 0.00 in0.0 mm 0.00 in0.0 mm 0.04 in1.0 mm
10:45 PM 39.7°F4.3°C 23.5°F-4.7°C 52% Calm Calm -- 30.42 in1030.1 mb 0.00 in0.0 mm 0.00 in0.0 mm 0.04 in1.0 mm
10:40 PM 39.7°F4.3°C 24.0°F-4.4°C 53% Calm Calm -- 30.42 in1030.1 mb 0.00 in0.0 mm 0.00 in0.0 mm 0.04 in1.0 mm
10:35 PM 39.9°F4.4°C 24.2°F-4.3°C 53% Calm Calm -- 30.42 in1030.1 mb 0.00 in0.0 mm 0.00 in0.0 mm 0.04 in1.0 mm
10:30 PM 40.0°F4.4°C 24.3°F-4.3°C 53% Calm Calm -- 30.42 in1030.1 mb 0.00 in0.0 mm 0.00 in0.0 mm 0.04 in1.0 mm
10:25 PM 40.2°F4.6°C 24.0°F-4.4°C 52% Calm Calm -- 30.42 in1030.1 mb 0.00 in0.0 mm 0.00 in0.0 mm 0.04 in1.0 mm
10:20 PM 40.4°F4.7°C 23.7°F-4.6°C 51% Calm Calm -- 30.42 in1030.1 mb 0.00 in0.0 mm 0.00 in0.0 mm 0.04 in1.0 mm
10:15 PM 40.6°F4.8°C 23.9°F-4.5°C 51% Calm Calm -- 30.41 in1029.8 mb 0.00 in0.0 mm 0.00 in0.0 mm 0.04 in1.0 mm
10:10 PM 40.9°F4.9°C 24.2°F-4.3°C 51% Calm Calm -- 30.41 in1029.8 mb 0.00 in0.0 mm 0.00 in0.0 mm 0.04 in1.0 mm
10:05 PM 41.2°F5.1°C 24.5°F-4.2°C 51% Calm Calm -- 30.42 in1030.1 mb 0.00 in0.0 mm 0.00 in0.0 mm 0.04 in1.0 mm
10:00 PM 41.4°F5.2°C 23.7°F-4.6°C 49% Calm Calm -- 30.42 in1030.1 mb 0.00 in0.0 mm 0.00 in0.0 mm 0.04 in1.0 mm
09:55 PM 41.6°F5.3°C 22.9°F-5.1°C 47% Calm Calm -- 30.42 in1030.1 mb 0.00 in0.0 mm 0.00 in0.0 mm 0.04 in1.0 mm
09:50 PM 41.7°F5.4°C 23.0°F-5.0°C 47% Calm Calm -- 30.42 in1030.1 mb 0.00 in0.0 mm 0.00 in0.0 mm 0.04 in1.0 mm
09:45 PM 41.8°F5.4°C 23.1°F-4.9°C 47% Calm Calm -- 30.42 in1030.1 mb 0.00 in0.0 mm 0.00 in0.0 mm 0.04 in1.0 mm
09:40 PM 42.0°F5.6°C 23.3°F-4.8°C 47% Calm Calm -- 30.42 in1030.1 mb 0.00 in0.0 mm 0.00 in0.0 mm 0.04 in1.0 mm
09:35 PM 42.2°F5.7°C 23.4°F-4.8°C 47% Calm Calm -- 30.41 in1029.8 mb 0.00 in0.0 mm 0.00 in0.0 mm 0.04 in1.0 mm
09:30 PM 42.4°F5.8°C 23.1°F-4.9°C 46% Calm Calm -- 30.41 in1029.8 mb 0.00 in0.0 mm 0.00 in0.0 mm 0.04 in1.0 mm
09:24 PM 42.5°F5.8°C 22.7°F-5.2°C 45% Calm Calm -- 30.41 in1029.8 mb 0.00 in0.0 mm 0.00 in0.0 mm 0.04 in1.0 mm
09:20 PM 42.7°F5.9°C 22.9°F-5.1°C 45% Calm Calm -- 30.41 in1029.8 mb 0.00 in0.0 mm 0.00 in0.0 mm 0.04 in1.0 mm
09:15 PM 42.9°F6.1°C 22.5°F-5.3°C 44% Calm Calm -- 30.41 in1029.8 mb 0.00 in0.0 mm 0.00 in0.0 mm 0.04 in1.0 mm
09:10 PM 43.2°F6.2°C 22.8°F-5.1°C 44% Calm Calm -- 30.41 in1029.8 mb 0.00 in0.0 mm 0.00 in0.0 mm 0.04 in1.0 mm
09:04 PM 43.5°F6.4°C 23.1°F-4.9°C 44% Calm Calm -- 30.41 in1029.8 mb 0.00 in0.0 mm 0.00 in0.0 mm 0.04 in1.0 mm
09:00 PM 43.8°F6.6°C 22.8°F-5.1°C 43% Calm Calm -- 30.41 in1029.8 mb 0.00 in0.0 mm 0.00 in0.0 mm 0.04 in1.0 mm
08:55 PM 44.0°F6.7°C 22.4°F-5.3°C 42% Calm Calm -- 30.41 in1029.8 mb 0.00 in0.0 mm 0.00 in0.0 mm 0.04 in1.0 mm
08:50 PM 44.2°F6.8°C 22.6°F-5.2°C 42% Calm Calm -- 30.41 in1029.8 mb 0.00 in0.0 mm 0.00 in0.0 mm 0.04 in1.0 mm
08:44 PM 44.4°F6.9°C 22.8°F-5.1°C 42% Calm Calm -- 30.41 in1029.8 mb 0.00 in0.0 mm 0.00 in0.0 mm 0.04 in1.0 mm
08:40 PM 44.5°F6.9°C 22.3°F-5.4°C 41% Calm Calm 1.0 mph1.6 kmh 30.41 in1029.8 mb 0.00 in0.0 mm 0.00 in0.0 mm 0.04 in1.0 mm
08:35 PM 44.7°F7.1°C 23.0°F-5.0°C 42% Calm Calm -- 30.41 in1029.8 mb 0.00 in0.0 mm 0.00 in0.0 mm 0.04 in1.0 mm
08:30 PM 45.0°F7.2°C 22.7°F-5.2°C 41% Calm Calm -- 30.41 in1029.8 mb 0.00 in0.0 mm 0.00 in0.0 mm 0.04 in1.0 mm
08:25 PM 45.2°F7.3°C 22.9°F-5.1°C 41% Calm Calm -- 30.41 in1029.8 mb 0.00 in0.0 mm 0.00 in0.0 mm 0.04 in1.0 mm
08:20 PM 45.5°F7.5°C 22.6°F-5.2°C 40% Calm Calm -- 30.41 in1029.8 mb 0.00 in0.0 mm 0.00 in0.0 mm 0.04 in1.0 mm
08:15 PM 45.7°F7.6°C 22.8°F-5.1°C 40% Calm Calm -- 30.41 in1029.8 mb 0.00 in0.0 mm 0.00 in0.0 mm 0.04 in1.0 mm
08:10 PM 45.9°F7.7°C 23.0°F-5.0°C 40% Calm Calm -- 30.40 in1029.5 mb 0.00 in0.0 mm 0.00 in0.0 mm 0.04 in1.0 mm
08:05 PM 46.1°F7.8°C 22.5°F-5.3°C 39% Calm Calm -- 30.40 in1029.5 mb 0.00 in0.0 mm 0.00 in0.0 mm 0.04 in1.0 mm
08:00 PM 46.4°F8.0°C 23.4°F-4.8°C 40% Calm Calm -- 30.40 in1029.5 mb 0.00 in0.0 mm 0.00 in0.0 mm 0.04 in1.0 mm
07:55 PM 46.7°F8.2°C 23.1°F-4.9°C 39% Calm Calm -- 30.40 in1029.5 mb 0.00 in0.0 mm 0.00 in0.0 mm 0.04 in1.0 mm
07:50 PM 46.9°F8.3°C 23.3°F-4.8°C 39% Calm Calm 1.0 mph1.6 kmh 30.40 in1029.5 mb 0.00 in0.0 mm 0.00 in0.0 mm 0.04 in1.0 mm
07:45 PM 47.0°F8.3°C 22.7°F-5.2°C 38% 2.0 mph ENE3.2 kmh ENE 3.0 mph4.8 kmh 30.40 in1029.5 mb 0.00 in0.0 mm 0.00 in0.0 mm 0.04 in1.0 mm
07:40 PM 47.2°F8.4°C 22.9°F-5.1°C 38% 2.0 mph N3.2 kmh N 2.0 mph3.2 kmh 30.40 in1029.5 mb 0.00 in0.0 mm 0.00 in0.0 mm 0.04 in1.0 mm
07:35 PM 47.3°F8.5°C 23.0°F-5.0°C 38% 1.0 mph E1.6 kmh E 3.0 mph4.8 kmh 30.40 in1029.5 mb 0.00 in0.0 mm 0.00 in0.0 mm 0.04 in1.0 mm
07:30 PM 47.4°F8.6°C 23.7°F-4.6°C 39% Calm Calm 1.0 mph1.6 kmh 30.40 in1029.5 mb 0.00 in0.0 mm 0.00 in0.0 mm 0.04 in1.0 mm
07:24 PM 47.5°F8.6°C 23.2°F-4.9°C 38% 1.0 mph ENE1.6 kmh ENE 1.0 mph1.6 kmh 30.40 in1029.5 mb 0.00 in0.0 mm 0.00 in0.0 mm 0.04 in1.0 mm
07:20 PM 47.6°F8.7°C 23.3°F-4.8°C 38% 5.0 mph ENE8.0 kmh ENE 5.0 mph8.0 kmh 30.40 in1029.5 mb 0.00 in0.0 mm 0.00 in0.0 mm 0.04 in1.0 mm
07:15 PM 47.9°F8.8°C 22.9°F-5.1°C 37% 8.0 mph NNE12.9 kmh NNE 8.0 mph12.9 kmh 30.40 in1029.5 mb 0.00 in0.0 mm 0.00 in0.0 mm 0.04 in1.0 mm
07:10 PM 48.1°F8.9°C 23.7°F-4.6°C 38% 2.0 mph NE3.2 kmh NE 4.0 mph6.4 kmh 30.40 in1029.5 mb 0.00 in0.0 mm 0.00 in0.0 mm 0.04 in1.0 mm
07:05 PM 48.0°F8.9°C 24.2°F-4.3°C 39% Calm Calm 1.0 mph1.6 kmh 30.40 in1029.5 mb 0.00 in0.0 mm 0.00 in0.0 mm 0.04 in1.0 mm
06:59 PM 48.0°F8.9°C 23.6°F-4.7°C 38% 5.0 mph ENE8.0 kmh ENE 5.0 mph8.0 kmh 30.40 in1029.5 mb 0.00 in0.0 mm 0.00 in0.0 mm 0.04 in1.0 mm
06:55 PM 48.1°F8.9°C 23.7°F-4.6°C 38% Calm Calm -- 30.40 in1029.5 mb 0.00 in0.0 mm 0.00 in0.0 mm 0.04 in1.0 mm
06:50 PM 48.1°F8.9°C 24.9°F-3.9°C 40% 3.0 mph E4.8 kmh E 7.0 mph11.3 kmh 30.40 in1029.5 mb 0.00 in0.0 mm 0.00 in0.0 mm 0.04 in1.0 mm
06:45 PM 48.0°F8.9°C 23.0°F-5.0°C 37% Calm Calm -- 30.40 in1029.5 mb 0.00 in0.0 mm 0.00 in0.0 mm 0.04 in1.0 mm
06:40 PM 48.2°F9.0°C 24.4°F-4.2°C 39% 4.0 mph NE6.4 kmh NE 5.0 mph8.0 kmh 30.40 in1029.5 mb 0.00 in0.0 mm 0.00 in0.0 mm 0.04 in1.0 mm
06:35 PM 48.1°F8.9°C 23.7°F-4.6°C 38% 4.0 mph NW6.4 kmh NW 5.0 mph8.0 kmh 30.40 in1029.5 mb 0.00 in0.0 mm 0.00 in0.0 mm 0.04 in1.0 mm
06:30 PM 48.4°F9.1°C 24.0°F-4.4°C 38% 1.0 mph ENE1.6 kmh ENE 2.0 mph3.2 kmh 30.40 in1029.5 mb 0.00 in0.0 mm 0.00 in0.0 mm 0.04 in1.0 mm
06:25 PM 48.6°F9.2°C 24.2°F-4.3°C 38% 10.0 mph N16.1 kmh N 10.0 mph16.1 kmh 30.40 in1029.5 mb 0.00 in0.0 mm 0.00 in0.0 mm 0.04 in1.0 mm
06:20 PM 48.7°F9.3°C 24.9°F-3.9°C 39% 4.0 mph ENE6.4 kmh ENE 4.0 mph6.4 kmh 30.40 in1029.5 mb 0.00 in0.0 mm 0.00 in0.0 mm 0.04 in1.0 mm
06:15 PM 48.5°F9.2°C 25.3°F-3.7°C 40% Calm Calm 2.0 mph3.2 kmh 30.40 in1029.5 mb 0.00 in0.0 mm 0.00 in0.0 mm 0.04 in1.0 mm
06:10 PM 48.1°F8.9°C 24.3°F-4.3°C 39% 4.0 mph NE6.4 kmh NE 4.0 mph6.4 kmh 30.40 in1029.5 mb 0.00 in0.0 mm 0.00 in0.0 mm 0.04 in1.0 mm
06:05 PM 48.6°F9.2°C 24.2°F-4.3°C 38% 4.0 mph NNE6.4 kmh NNE 6.0 mph9.7 kmh 30.40 in1029.5 mb 0.00 in0.0 mm 0.00 in0.0 mm 0.04 in1.0 mm
06:00 PM 49.1°F9.5°C 25.2°F-3.8°C 39% 1.0 mph NE1.6 kmh NE 2.0 mph3.2 kmh 30.40 in1029.5 mb 0.00 in0.0 mm 0.00 in0.0 mm 0.04 in1.0 mm
05:55 PM 49.2°F9.6°C 25.9°F-3.4°C 40% 2.0 mph E3.2 kmh E 2.0 mph3.2 kmh 30.40 in1029.5 mb 0.00 in0.0 mm 0.00 in0.0 mm 0.04 in1.0 mm
05:50 PM 49.6°F9.8°C 24.4°F-4.2°C 37% 4.0 mph ENE6.4 kmh ENE 4.0 mph6.4 kmh 30.40 in1029.5 mb 0.00 in0.0 mm 0.00 in0.0 mm 0.04 in1.0 mm
05:45 PM 49.8°F9.9°C 25.2°F-3.8°C 38% 1.0 mph SE1.6 kmh SE 1.0 mph1.6 kmh 30.40 in1029.5 mb 0.00 in0.0 mm 0.00 in0.0 mm 0.04 in1.0 mm
05:40 PM 49.9°F9.9°C 25.3°F-3.7°C 38% 1.0 mph NNE1.6 kmh NNE 3.0 mph4.8 kmh 30.40 in1029.5 mb 0.00 in0.0 mm 0.00 in0.0 mm 0.04 in1.0 mm
05:35 PM 49.4°F9.7°C 27.3°F-2.6°C 42% 3.0 mph E4.8 kmh E 3.0 mph4.8 kmh 30.40 in1029.5 mb 0.00 in0.0 mm 0.00 in0.0 mm 0.04 in1.0 mm
05:29 PM 48.7°F9.3°C 25.5°F-3.6°C 40% 3.0 mph SE4.8 kmh SE 5.0 mph8.0 kmh 30.40 in1029.5 mb 0.00 in0.0 mm 0.00 in0.0 mm 0.04 in1.0 mm
05:25 PM 48.4°F9.1°C 24.0°F-4.4°C 38% 2.0 mph ENE3.2 kmh ENE 2.0 mph3.2 kmh 30.41 in1029.8 mb 0.00 in0.0 mm 0.00 in0.0 mm 0.04 in1.0 mm
05:20 PM 48.9°F9.4°C 24.4°F-4.2°C 38% 2.0 mph N3.2 kmh N 3.0 mph4.8 kmh 30.41 in1029.8 mb 0.00 in0.0 mm 0.00 in0.0 mm 0.04 in1.0 mm
05:15 PM 49.2°F9.6°C 24.7°F-4.1°C 38% Calm Calm -- 30.41 in1029.8 mb 0.00 in0.0 mm 0.00 in0.0 mm 0.04 in1.0 mm
05:10 PM 48.8°F9.3°C 25.6°F-3.6°C 40% 3.0 mph NNE4.8 kmh NNE 4.0 mph6.4 kmh 30.41 in1029.8 mb 0.00 in0.0 mm 0.00 in0.0 mm 0.04 in1.0 mm
05:05 PM 48.8°F9.3°C 23.1°F-4.9°C 36% 2.0 mph NNE3.2 kmh NNE 2.0 mph3.2 kmh 30.41 in1029.8 mb 0.00 in0.0 mm 0.00 in0.0 mm 0.04 in1.0 mm
05:00 PM 49.8°F9.9°C 25.9°F-3.4°C 39% 4.0 mph NE6.4 kmh NE 6.0 mph9.7 kmh 30.41 in1029.8 mb 0.00 in0.0 mm 0.00 in0.0 mm 0.04 in1.0 mm
04:55 PM 49.4°F9.7°C 25.5°F-3.6°C 39% 2.0 mph NE3.2 kmh NE 2.0 mph3.2 kmh 30.41 in1029.8 mb 0.00 in0.0 mm 0.00 in0.0 mm 0.04 in1.0 mm
04:50 PM 49.0°F9.4°C 24.5°F-4.2°C 38% 2.0 mph ENE3.2 kmh ENE 2.0 mph3.2 kmh 30.41 in1029.8 mb 0.00 in0.0 mm 0.00 in0.0 mm 0.04 in1.0 mm
04:44 PM 49.1°F9.5°C 24.6°F-4.1°C 38% Calm Calm 1.0 mph1.6 kmh 30.41 in1029.8 mb 0.00 in0.0 mm 0.00 in0.0 mm 0.04 in1.0 mm
04:40 PM 48.9°F9.4°C 25.7°F-3.5°C 40% 1.0 mph E1.6 kmh E 3.0 mph4.8 kmh 30.42 in1030.1 mb 0.00 in0.0 mm 0.00 in0.0 mm 0.04 in1.0 mm
04:35 PM 47.9°F8.8°C 25.9°F-3.4°C 42% 1.0 mph ENE1.6 kmh ENE 2.0 mph3.2 kmh 30.41 in1029.8 mb 0.00 in0.0 mm 0.00 in0.0 mm 0.04 in1.0 mm
04:30 PM 47.4°F8.6°C 23.1°F-4.9°C 38% 2.0 mph N3.2 kmh N 2.0 mph3.2 kmh 30.41 in1029.8 mb 0.00 in0.0 mm 0.00 in0.0 mm 0.04 in1.0 mm
04:25 PM 47.6°F8.7°C 23.9°F-4.5°C 39% 4.0 mph N6.4 kmh N 5.0 mph8.0 kmh 30.42 in1030.1 mb 0.00 in0.0 mm 0.00 in0.0 mm 0.04 in1.0 mm
04:20 PM 47.8°F8.8°C 24.1°F-4.4°C 39% 2.0 mph N3.2 kmh N 4.0 mph6.4 kmh 30.42 in1030.1 mb 0.00 in0.0 mm 0.00 in0.0 mm 0.04 in1.0 mm
04:15 PM 47.8°F8.8°C 24.1°F-4.4°C 39% 3.0 mph ENE4.8 kmh ENE 4.0 mph6.4 kmh 30.42 in1030.1 mb 0.00 in0.0 mm 0.00 in0.0 mm 0.04 in1.0 mm
04:09 PM 48.4°F9.1°C 24.6°F-4.1°C 39% 4.0 mph N6.4 kmh N 5.0 mph8.0 kmh 30.42 in1030.1 mb 0.00 in0.0 mm 0.00 in0.0 mm 0.04 in1.0 mm
04:05 PM 47.8°F8.8°C 25.3°F-3.7°C 41% 1.0 mph WNW1.6 kmh WNW 1.0 mph1.6 kmh 30.42 in1030.1 mb 0.00 in0.0 mm 0.00 in0.0 mm 0.04 in1.0 mm
04:00 PM 47.4°F8.6°C 24.9°F-3.9°C 41% 3.0 mph N4.8 kmh N 3.0 mph4.8 kmh 30.42 in1030.1 mb 0.00 in0.0 mm 0.00 in0.0 mm 0.04 in1.0 mm
03:55 PM 47.2°F8.4°C 25.9°F-3.4°C 43% Calm Calm -- 30.42 in1030.1 mb 0.00 in0.0 mm 0.00 in0.0 mm 0.04 in1.0 mm
03:50 PM 46.7°F8.2°C 23.7°F-4.6°C 40% 8.0 mph NNE12.9 kmh NNE 9.0 mph14.5 kmh 30.42 in1030.1 mb 0.00 in0.0 mm 0.00 in0.0 mm 0.04 in1.0 mm
03:45 PM 46.6°F8.1°C 24.2°F-4.3°C 41% 5.0 mph NNE8.0 kmh NNE 6.0 mph9.7 kmh 30.42 in1030.1 mb 0.00 in0.0 mm 0.00 in0.0 mm 0.04 in1.0 mm
03:40 PM 46.6°F8.1°C 24.8°F-4.0°C 42% 5.0 mph NE8.0 kmh NE 5.0 mph8.0 kmh 30.43 in1030.5 mb 0.00 in0.0 mm 0.00 in0.0 mm 0.04 in1.0 mm
03:35 PM 46.9°F8.3°C 23.3°F-4.8°C 39% 4.0 mph NNW6.4 kmh NNW 6.0 mph9.7 kmh 30.43 in1030.5 mb 0.00 in0.0 mm 0.00 in0.0 mm 0.04 in1.0 mm
03:30 PM 47.3°F8.5°C 26.5°F-3.1°C 44% 3.0 mph NNW4.8 kmh NNW 6.0 mph9.7 kmh 30.43 in1030.5 mb 0.00 in0.0 mm 0.00 in0.0 mm 0.04 in1.0 mm
03:25 PM 46.6°F8.1°C 24.8°F-4.0°C 42% Calm Calm -- 30.43 in1030.5 mb 0.00 in0.0 mm 0.00 in0.0 mm 0.04 in1.0 mm
03:20 PM 46.9°F8.3°C 26.1°F-3.3°C 44% 9.0 mph NE14.5 kmh NE 9.0 mph14.5 kmh 30.43 in1030.5 mb 0.00 in0.0 mm 0.00 in0.0 mm 0.04 in1.0 mm
03:15 PM 46.2°F7.9°C 24.4°F-4.2°C 42% 3.0 mph SE4.8 kmh SE 3.0 mph4.8 kmh 30.43 in1030.5 mb 0.00 in0.0 mm 0.00 in0.0 mm 0.04 in1.0 mm
03:10 PM 46.6°F8.1°C 24.8°F-4.0°C 42% 3.0 mph NE4.8 kmh NE 3.0 mph4.8 kmh 30.44 in1030.8 mb 0.00 in0.0 mm 0.00 in0.0 mm 0.04 in1.0 mm
09:35 AM 34.6°F1.4°C 21.4°F-5.9°C 58% 4.0 mph NE6.4 kmh NE 7.0 mph11.3 kmh 30.46 in1031.5 mb 0.00 in0.0 mm 0.00 in0.0 mm 0.04 in1.0 mm
09:30 AM 34.3°F1.3°C 21.5°F-5.8°C 59% 5.0 mph N8.0 kmh N 5.0 mph8.0 kmh 30.45 in1031.2 mb 0.00 in0.0 mm 0.00 in0.0 mm 0.04 in1.0 mm
09:25 AM 33.9°F1.1°C 22.3°F-5.4°C 62% 6.0 mph NE9.7 kmh NE 6.0 mph9.7 kmh 30.45 in1031.2 mb 0.00 in0.0 mm 0.00 in0.0 mm 0.04 in1.0 mm
09:20 AM 33.4°F0.8°C 22.9°F-5.1°C 65% 3.0 mph ENE4.8 kmh ENE 4.0 mph6.4 kmh 30.45 in1031.2 mb 0.00 in0.0 mm 0.00 in0.0 mm 0.04 in1.0 mm
09:14 AM 32.9°F0.5°C 22.8°F-5.1°C 66% 3.0 mph NNE4.8 kmh NNE 3.0 mph4.8 kmh 30.45 in1031.2 mb 0.00 in0.0 mm 0.00 in0.0 mm 0.04 in1.0 mm
09:09 AM 32.4°F0.2°C 23.4°F-4.8°C 69% Calm Calm -- 30.45 in1031.2 mb 0.00 in0.0 mm 0.00 in0.0 mm 0.04 in1.0 mm
09:04 AM 31.9°F-0.1°C 23.2°F-4.9°C 70% 2.0 mph NE3.2 kmh NE 2.0 mph3.2 kmh 30.45 in1031.2 mb 0.00 in0.0 mm 0.00 in0.0 mm 0.04 in1.0 mm
08:59 AM 31.5°F-0.3°C 23.2°F-4.9°C 71% 1.0 mph NE1.6 kmh NE 2.0 mph3.2 kmh 30.44 in1030.8 mb 0.00 in0.0 mm 0.00 in0.0 mm 0.04 in1.0 mm
08:55 AM 30.9°F-0.6°C 23.3°F-4.8°C 73% 1.0 mph NNE1.6 kmh NNE 2.0 mph3.2 kmh 30.44 in1030.8 mb 0.00 in0.0 mm 0.00 in0.0 mm 0.04 in1.0 mm
08:50 AM 30.4°F-0.9°C 23.4°F-4.8°C 75% 1.0 mph NE1.6 kmh NE 2.0 mph3.2 kmh 30.44 in1030.8 mb 0.00 in0.0 mm 0.00 in0.0 mm 0.04 in1.0 mm
08:45 AM 29.9°F-1.2°C 23.6°F-4.7°C 77% 1.0 mph NE1.6 kmh NE 1.0 mph1.6 kmh 30.44 in1030.8 mb 0.00 in0.0 mm 0.00 in0.0 mm 0.04 in1.0 mm
08:40 AM 29.5°F-1.4°C 23.5°F-4.7°C 78% Calm Calm -- 30.44 in1030.8 mb 0.00 in0.0 mm 0.00 in0.0 mm 0.04 in1.0 mm
08:35 AM 29.0°F-1.7°C 23.6°F-4.7°C 80% Calm Calm -- 30.44 in1030.8 mb 0.00 in0.0 mm 0.00 in0.0 mm 0.04 in1.0 mm
08:30 AM 28.6°F-1.9°C 23.5°F-4.7°C 81% Calm Calm -- 30.43 in1030.5 mb 0.00 in0.0 mm 0.00 in0.0 mm 0.04 in1.0 mm
08:25 AM 28.4°F-2.0°C 23.3°F-4.8°C 81% Calm Calm -- 30.43 in1030.5 mb 0.00 in0.0 mm 0.00 in0.0 mm 0.04 in1.0 mm
08:19 AM 28.5°F-1.9°C 23.4°F-4.8°C 81% Calm Calm -- 30.43 in1030.5 mb 0.00 in0.0 mm 0.00 in0.0 mm 0.04 in1.0 mm
08:15 AM 28.6°F-1.9°C 23.2°F-4.9°C 80% Calm Calm -- 30.42 in1030.1 mb 0.00 in0.0 mm 0.00 in0.0 mm 0.04 in1.0 mm
08:10 AM 28.7°F-1.8°C 23.3°F-4.8°C 80% Calm Calm -- 30.42 in1030.1 mb 0.00 in0.0 mm 0.00 in0.0 mm 0.04 in1.0 mm
08:05 AM 28.9°F-1.7°C 23.2°F-4.9°C 79% Calm Calm -- 30.42 in1030.1 mb 0.00 in0.0 mm 0.00 in0.0 mm 0.04 in1.0 mm
07:59 AM 29.0°F-1.7°C 23.3°F-4.8°C 79% Calm Calm -- 30.42 in1030.1 mb 0.00 in0.0 mm 0.00 in0.0 mm 0.04 in1.0 mm
07:54 AM 29.1°F-1.6°C 23.1°F-4.9°C 78% Calm Calm -- 30.42 in1030.1 mb 0.00 in0.0 mm 0.00 in0.0 mm 0.04 in1.0 mm
07:49 AM 29.1°F-1.6°C 23.1°F-4.9°C 78% Calm Calm -- 30.42 in1030.1 mb 0.00 in0.0 mm 0.00 in0.0 mm 0.04 in1.0 mm
07:45 AM 29.2°F-1.6°C 23.2°F-4.9°C 78% Calm Calm -- 30.41 in1029.8 mb 0.00 in0.0 mm 0.00 in0.0 mm 0.04 in1.0 mm
07:40 AM 29.2°F-1.6°C 23.2°F-4.9°C 78% Calm Calm -- 30.41 in1029.8 mb 0.00 in0.0 mm 0.00 in0.0 mm 0.04 in1.0 mm
07:35 AM 29.2°F-1.6°C 23.2°F-4.9°C 78% Calm Calm -- 30.41 in1029.8 mb 0.00 in0.0 mm 0.00 in0.0 mm 0.04 in1.0 mm
07:30 AM 29.1°F-1.6°C 23.4°F-4.8°C 79% Calm Calm -- 30.41 in1029.8 mb 0.00 in0.0 mm 0.00 in0.0 mm 0.04 in1.0 mm
07:25 AM 29.0°F-1.7°C 23.3°F-4.8°C 79% Calm Calm -- 30.41 in1029.8 mb 0.00 in0.0 mm 0.00 in0.0 mm 0.04 in1.0 mm
07:20 AM 28.9°F-1.7°C 23.2°F-4.9°C 79% Calm Calm -- 30.41 in1029.8 mb 0.00 in0.0 mm 0.00 in0.0 mm 0.04 in1.0 mm
07:15 AM 28.8°F-1.8°C 23.1°F-4.9°C 79% Calm Calm -- 30.40 in1029.5 mb 0.00 in0.0 mm 0.00 in0.0 mm 0.04 in1.0 mm
07:10 AM 28.8°F-1.8°C 23.1°F-4.9°C 79% Calm Calm -- 30.40 in1029.5 mb 0.00 in0.0 mm 0.00 in0.0 mm 0.04 in1.0 mm
07:05 AM 28.9°F-1.7°C 22.9°F-5.1°C 78% Calm Calm -- 30.40 in1029.5 mb 0.00 in0.0 mm 0.00 in0.0 mm 0.04 in1.0 mm
07:00 AM 29.2°F-1.6°C 22.9°F-5.1°C 77% Calm Calm -- 30.40 in1029.5 mb 0.00 in0.0 mm 0.00 in0.0 mm 0.04 in1.0 mm
06:55 AM 29.5°F-1.4°C 22.9°F-5.1°C 76% Calm Calm -- 30.40 in1029.5 mb 0.00 in0.0 mm 0.00 in0.0 mm 0.04 in1.0 mm
06:50 AM 29.8°F-1.2°C 23.2°F-4.9°C 76% Calm Calm -- 30.40 in1029.5 mb 0.00 in0.0 mm 0.00 in0.0 mm 0.04 in1.0 mm
06:45 AM 29.8°F-1.2°C 23.2°F-4.9°C 76% Calm Calm -- 30.39 in1029.1 mb 0.00 in0.0 mm 0.00 in0.0 mm 0.04 in1.0 mm
06:40 AM 29.9°F-1.2°C 23.3°F-4.8°C 76% Calm Calm -- 30.39 in1029.1 mb 0.00 in0.0 mm 0.00 in0.0 mm 0.04 in1.0 mm
06:35 AM 29.8°F-1.2°C 23.2°F-4.9°C 76% Calm Calm -- 30.39 in1029.1 mb 0.01 in0.3 mm 0.00 in0.0 mm 0.04 in1.0 mm
06:30 AM 29.8°F-1.2°C 23.2°F-4.9°C 76% Calm Calm -- 30.39 in1029.1 mb 0.01 in0.3 mm 0.00 in0.0 mm 0.04 in1.0 mm
06:24 AM 29.7°F-1.3°C 23.1°F-4.9°C 76% Calm Calm -- 30.39 in1029.1 mb 0.01 in0.3 mm 0.00 in0.0 mm 0.04 in1.0 mm
06:20 AM 29.7°F-1.3°C 23.4°F-4.8°C 77% Calm Calm -- 30.38 in1028.8 mb 0.01 in0.3 mm 0.00 in0.0 mm 0.04 in1.0 mm
06:15 AM 29.5°F-1.4°C 23.2°F-4.9°C 77% Calm Calm -- 30.38 in1028.8 mb 0.01 in0.3 mm 0.00 in0.0 mm 0.04 in1.0 mm
06:10 AM 29.4°F-1.4°C 23.4°F-4.8°C 78% Calm Calm -- 30.38 in1028.8 mb 0.01 in0.3 mm 0.00 in0.0 mm 0.04 in1.0 mm
06:04 AM 29.4°F-1.4°C 23.4°F-4.8°C 78% Calm Calm -- 30.38 in1028.8 mb 0.01 in0.3 mm 0.00 in0.0 mm 0.04 in1.0 mm
05:59 AM 29.3°F-1.5°C 23.3°F-4.8°C 78% Calm Calm -- 30.38 in1028.8 mb 0.01 in0.3 mm 0.00 in0.0 mm 0.04 in1.0 mm
05:54 AM 29.2°F-1.6°C 23.5°F-4.7°C 79% Calm Calm -- 30.37 in1028.4 mb 0.01 in0.3 mm 0.00 in0.0 mm 0.04 in1.0 mm
05:50 AM 29.1°F-1.6°C 23.7°F-4.6°C 80% Calm Calm -- 30.37 in1028.4 mb 0.01 in0.3 mm 0.00 in0.0 mm 0.04 in1.0 mm
05:44 AM 29.1°F-1.6°C 23.7°F-4.6°C 80% Calm Calm -- 30.37 in1028.4 mb 0.01 in0.3 mm 0.00 in0.0 mm 0.04 in1.0 mm
05:39 AM 29.1°F-1.6°C 23.7°F-4.6°C 80% Calm Calm -- 30.37 in1028.4 mb 0.01 in0.3 mm 0.15 in3.8 mm 0.04 in1.0 mm
05:35 AM 29.1°F-1.6°C 23.7°F-4.6°C 80% Calm Calm -- 30.36 in1028.1 mb 0.00 in0.0 mm 0.00 in0.0 mm 0.03 in0.8 mm
05:29 AM 29.3°F-1.5°C 23.9°F-4.5°C 80% Calm Calm -- 30.36 in1028.1 mb 0.00 in0.0 mm 0.00 in0.0 mm 0.03 in0.8 mm
05:24 AM 29.4°F-1.4°C 23.7°F-4.6°C 79% Calm Calm -- 30.36 in1028.1 mb 0.00 in0.0 mm 0.00 in0.0 mm 0.03 in0.8 mm
05:19 AM 29.5°F-1.4°C 23.5°F-4.7°C 78% Calm Calm -- 30.36 in1028.1 mb 0.00 in0.0 mm 0.00 in0.0 mm 0.03 in0.8 mm
05:15 AM 29.7°F-1.3°C 23.7°F-4.6°C 78% Calm Calm -- 30.36 in1028.1 mb 0.00 in0.0 mm 0.00 in0.0 mm 0.03 in0.8 mm
05:09 AM 29.9°F-1.2°C 23.3°F-4.8°C 76% Calm Calm -- 30.36 in1028.1 mb 0.00 in0.0 mm 0.00 in0.0 mm 0.03 in0.8 mm
05:04 AM 30.1°F-1.1°C 23.2°F-4.9°C 75% Calm Calm -- 30.36 in1028.1 mb 0.00 in0.0 mm 0.00 in0.0 mm 0.03 in0.8 mm
04:59 AM 30.5°F-0.8°C 23.2°F-4.9°C 74% Calm Calm -- 30.36 in1028.1 mb 0.00 in0.0 mm 0.00 in0.0 mm 0.03 in0.8 mm
04:54 AM 30.8°F-0.7°C 23.5°F-4.7°C 74% Calm Calm -- 30.36 in1028.1 mb 0.00 in0.0 mm 0.00 in0.0 mm 0.03 in0.8 mm
04:50 AM 31.1°F-0.5°C 23.5°F-4.7°C 73% Calm Calm -- 30.35 in1027.8 mb 0.01 in0.3 mm 0.00 in0.0 mm 0.03 in0.8 mm
04:45 AM 31.2°F-0.4°C 23.2°F-4.9°C 72% Calm Calm -- 30.35 in1027.8 mb 0.01 in0.3 mm 0.00 in0.0 mm 0.03 in0.8 mm
04:39 AM 31.4°F-0.3°C 23.1°F-4.9°C 71% Calm Calm -- 30.35 in1027.8 mb 0.01 in0.3 mm 0.00 in0.0 mm 0.03 in0.8 mm
04:34 AM 31.5°F-0.3°C 22.9°F-5.1°C 70% Calm Calm -- 30.35 in1027.8 mb 0.01 in0.3 mm 0.00 in0.0 mm 0.03 in0.8 mm
04:29 AM 31.7°F-0.2°C 23.1°F-4.9°C 70% Calm Calm -- 30.35 in1027.8 mb 0.01 in0.3 mm 0.00 in0.0 mm 0.03 in0.8 mm
04:24 AM 31.9°F-0.1°C 23.2°F-4.9°C 70% Calm Calm -- 30.35 in1027.8 mb 0.01 in0.3 mm 0.00 in0.0 mm 0.03 in0.8 mm
04:20 AM 31.9°F-0.1°C 23.2°F-4.9°C 70% Calm Calm -- 30.36 in1028.1 mb 0.01 in0.3 mm 0.00 in0.0 mm 0.03 in0.8 mm
04:15 AM 31.7°F-0.2°C 23.4°F-4.8°C 71% Calm Calm -- 30.36 in1028.1 mb 0.01 in0.3 mm 0.00 in0.0 mm 0.03 in0.8 mm
04:09 AM 31.8°F-0.1°C 23.8°F-4.6°C 72% Calm Calm -- 30.36 in1028.1 mb 0.01 in0.3 mm 0.00 in0.0 mm 0.03 in0.8 mm
04:05 AM 31.9°F-0.1°C 23.9°F-4.5°C 72% Calm Calm -- 30.36 in1028.1 mb 0.01 in0.3 mm 0.00 in0.0 mm 0.03 in0.8 mm
03:59 AM 32.0°F0.0°C 24.0°F-4.4°C 72% Calm Calm -- 30.36 in1028.1 mb 0.01 in0.3 mm 0.00 in0.0 mm 0.03 in0.8 mm
03:55 AM 32.1°F0.1°C 24.1°F-4.4°C 72% Calm Calm -- 30.36 in1028.1 mb 0.01 in0.3 mm 0.12 in3.0 mm 0.03 in0.8 mm
03:50 AM 32.4°F0.2°C 24.4°F-4.2°C 72% Calm Calm -- 30.36 in1028.1 mb 0.00 in0.0 mm 0.00 in0.0 mm 0.02 in0.5 mm
03:45 AM 32.7°F0.4°C 24.4°F-4.2°C 71% Calm Calm -- 30.36 in1028.1 mb 0.00 in0.0 mm 0.00 in0.0 mm 0.02 in0.5 mm
03:40 AM 33.1°F0.6°C 24.4°F-4.2°C 70% Calm Calm -- 30.36 in1028.1 mb 0.00 in0.0 mm 0.00 in0.0 mm 0.02 in0.5 mm
03:34 AM 33.5°F0.8°C 24.1°F-4.4°C 68% Calm Calm -- 30.35 in1027.8 mb 0.00 in0.0 mm 0.00 in0.0 mm 0.02 in0.5 mm
03:30 AM 33.9°F1.1°C 24.1°F-4.4°C 67% Calm Calm -- 30.35 in1027.8 mb 0.00 in0.0 mm 0.00 in0.0 mm 0.02 in0.5 mm
03:25 AM 34.1°F1.2°C 24.0°F-4.4°C 66% Calm Calm -- 30.35 in1027.8 mb 0.00 in0.0 mm 0.00 in0.0 mm 0.02 in0.5 mm
03:20 AM 34.4°F1.3°C 23.9°F-4.5°C 65% Calm Calm -- 30.35 in1027.8 mb 0.00 in0.0 mm 0.00 in0.0 mm 0.02 in0.5 mm
03:14 AM 34.7°F1.5°C 23.8°F-4.6°C 64% Calm Calm -- 30.35 in1027.8 mb 0.00 in0.0 mm 0.00 in0.0 mm 0.02 in0.5 mm
03:10 AM 34.9°F1.6°C 24.0°F-4.4°C 64% Calm Calm -- 30.35 in1027.8 mb 0.00 in0.0 mm 0.00 in0.0 mm 0.02 in0.5 mm
03:05 AM 35.1°F1.7°C 24.2°F-4.3°C 64% Calm Calm -- 30.35 in1027.8 mb 0.00 in0.0 mm 0.00 in0.0 mm 0.02 in0.5 mm
03:00 AM 35.3°F1.8°C 24.4°F-4.2°C 64% Calm Calm -- 30.35 in1027.8 mb 0.00 in0.0 mm 0.00 in0.0 mm 0.02 in0.5 mm
02:55 AM 35.5°F1.9°C 24.2°F-4.3°C 63% Calm Calm -- 30.35 in1027.8 mb 0.01 in0.3 mm 0.00 in0.0 mm 0.02 in0.5 mm
02:50 AM 35.7°F2.1°C 24.4°F-4.2°C 63% 1.0 mph NE1.6 kmh NE 1.0 mph1.6 kmh 30.35 in1027.8 mb 0.01 in0.3 mm 0.00 in0.0 mm 0.02 in0.5 mm
02:45 AM 35.8°F2.1°C 24.5°F-4.2°C 63% Calm Calm -- 30.34 in1027.4 mb 0.01 in0.3 mm 0.00 in0.0 mm 0.02 in0.5 mm
02:39 AM 35.9°F2.2°C 24.6°F-4.1°C 63% Calm Calm -- 30.34 in1027.4 mb 0.01 in0.3 mm 0.00 in0.0 mm 0.02 in0.5 mm
02:34 AM 36.0°F2.2°C 24.6°F-4.1°C 63% Calm Calm -- 30.34 in1027.4 mb 0.01 in0.3 mm 0.00 in0.0 mm 0.02 in0.5 mm
02:29 AM 36.1°F2.3°C 24.7°F-4.1°C 63% 2.0 mph NNE3.2 kmh NNE 2.0 mph3.2 kmh 30.34 in1027.4 mb 0.01 in0.3 mm 0.00 in0.0 mm 0.02 in0.5 mm
02:25 AM 36.1°F2.3°C 24.4°F-4.2°C 62% Calm Calm 1.0 mph1.6 kmh 30.34 in1027.4 mb 0.01 in0.3 mm 0.00 in0.0 mm 0.02 in0.5 mm
02:19 AM 36.2°F2.3°C 24.5°F-4.2°C 62% 1.0 mph NNE1.6 kmh NNE 1.0 mph1.6 kmh 30.34 in1027.4 mb 0.01 in0.3 mm 0.00 in0.0 mm 0.02 in0.5 mm
02:15 AM 36.2°F2.3°C 24.1°F-4.4°C 61% 2.0 mph E3.2 kmh E 2.0 mph3.2 kmh 30.34 in1027.4 mb 0.01 in0.3 mm 0.00 in0.0 mm 0.02 in0.5 mm
02:10 AM 36.2°F2.3°C 24.1°F-4.4°C 61% 1.0 mph E1.6 kmh E 2.0 mph3.2 kmh 30.34 in1027.4 mb 0.01 in0.3 mm 0.00 in0.0 mm 0.02 in0.5 mm
02:05 AM 36.1°F2.3°C 23.6°F-4.7°C 60% Calm Calm -- 30.34 in1027.4 mb 0.01 in0.3 mm 0.00 in0.0 mm 0.02 in0.5 mm
02:00 AM 35.9°F2.2°C 23.8°F-4.6°C 61% 1.0 mph E1.6 kmh E 1.0 mph1.6 kmh 30.34 in1027.4 mb 0.01 in0.3 mm 0.01 in0.3 mm 0.02 in0.5 mm
01:54 AM 35.5°F1.9°C 24.2°F-4.3°C 63% Calm Calm -- 30.34 in1027.4 mb 0.00 in0.0 mm 0.00 in0.0 mm 0.01 in0.3 mm
01:49 AM 35.4°F1.9°C 24.5°F-4.2°C 64% Calm Calm -- 30.34 in1027.4 mb 0.00 in0.0 mm 0.00 in0.0 mm 0.01 in0.3 mm
01:45 AM 35.2°F1.8°C 24.6°F-4.1°C 65% Calm Calm -- 30.34 in1027.4 mb 0.00 in0.0 mm 0.00 in0.0 mm 0.01 in0.3 mm
01:40 AM 35.0°F1.7°C 24.8°F-4.0°C 66% Calm Calm -- 30.33 in1027.1 mb 0.00 in0.0 mm 0.00 in0.0 mm 0.01 in0.3 mm
01:34 AM 34.7°F1.5°C 24.9°F-3.9°C 67% Calm Calm -- 30.33 in1027.1 mb 0.00 in0.0 mm 0.00 in0.0 mm 0.01 in0.3 mm
01:29 AM 34.5°F1.4°C 25.0°F-3.9°C 68% Calm Calm -- 30.33 in1027.1 mb 0.00 in0.0 mm 0.00 in0.0 mm 0.01 in0.3 mm
01:25 AM 34.4°F1.3°C 25.6°F-3.6°C 70% Calm Calm -- 30.33 in1027.1 mb 0.00 in0.0 mm 0.00 in0.0 mm 0.01 in0.3 mm
01:20 AM 34.5°F1.4°C 26.1°F-3.3°C 71% Calm Calm -- 30.33 in1027.1 mb 0.00 in0.0 mm 0.00 in0.0 mm 0.01 in0.3 mm
01:15 AM 34.7°F1.5°C 26.3°F-3.2°C 71% Calm Calm -- 30.33 in1027.1 mb 0.00 in0.0 mm 0.00 in0.0 mm 0.01 in0.3 mm
01:09 AM 35.1°F1.7°C 26.3°F-3.2°C 70% Calm Calm -- 30.33 in1027.1 mb 0.00 in0.0 mm 0.00 in0.0 mm 0.01 in0.3 mm
01:04 AM 35.5°F1.9°C 26.0°F-3.3°C 68% Calm Calm -- 30.33 in1027.1 mb 0.00 in0.0 mm 0.00 in0.0 mm 0.01 in0.3 mm
12:59 AM 35.9°F2.2°C 26.0°F-3.3°C 67% Calm Calm -- 30.33 in1027.1 mb 0.00 in0.0 mm 0.00 in0.0 mm 0.01 in0.3 mm
12:55 AM 36.1°F2.3°C 25.9°F-3.4°C 66% Calm Calm -- 30.32 in1026.8 mb 0.00 in0.0 mm 0.00 in0.0 mm 0.01 in0.3 mm
12:50 AM 36.2°F2.3°C 24.8°F-4.0°C 63% Calm Calm -- 30.32 in1026.8 mb 0.00 in0.0 mm 0.00 in0.0 mm 0.01 in0.3 mm
12:45 AM 36.0°F2.2°C 24.6°F-4.1°C 63% Calm Calm -- 30.32 in1026.8 mb 0.00 in0.0 mm 0.00 in0.0 mm 0.01 in0.3 mm
12:39 AM 35.7°F2.1°C 25.1°F-3.8°C 65% 1.0 mph E1.6 kmh E 1.0 mph1.6 kmh 30.32 in1026.8 mb 0.01 in0.3 mm 0.00 in0.0 mm 0.01 in0.3 mm
12:35 AM 35.5°F1.9°C 25.6°F-3.6°C 67% Calm Calm -- 30.31 in1026.4 mb 0.01 in0.3 mm 0.00 in0.0 mm 0.01 in0.3 mm
12:30 AM 35.2°F1.8°C 25.4°F-3.7°C 67% Calm Calm -- 30.31 in1026.4 mb 0.01 in0.3 mm 0.00 in0.0 mm 0.01 in0.3 mm
12:25 AM 35.3°F1.8°C 25.8°F-3.4°C 68% Calm Calm -- 30.31 in1026.4 mb 0.01 in0.3 mm 0.00 in0.0 mm 0.01 in0.3 mm
12:20 AM 35.6°F2.0°C 26.5°F-3.1°C 69% Calm Calm -- 30.31 in1026.4 mb 0.01 in0.3 mm 0.00 in0.0 mm 0.01 in0.3 mm
12:15 AM 35.9°F2.2°C 27.1°F-2.7°C 70% Calm Calm -- 30.30 in1026.1 mb 0.01 in0.3 mm 0.00 in0.0 mm 0.01 in0.3 mm
12:10 AM 36.2°F2.3°C 26.7°F-2.9°C 68% Calm Calm -- 30.30 in1026.1 mb 0.01 in0.3 mm 0.00 in0.0 mm 0.01 in0.3 mm
12:05 AM 36.5°F2.5°C 26.6°F-3.0°C 67% Calm Calm -- 30.30 in1026.1 mb 0.01 in0.3 mm 0.12 in3.0 mm 0.01 in0.3 mm